createdAt,value
2018-02-16T00:01:55.160Z,69.30
2018-02-16T00:04:22.590Z,69.60
2018-02-16T00:06:50.032Z,70.10
2018-02-16T00:09:17.458Z,69.00
2018-02-16T00:11:44.909Z,69.40
2018-02-16T00:14:12.327Z,68.90
2018-02-16T00:16:39.764Z,69.10
2018-02-16T00:19:07.192Z,69.20
2018-02-16T00:21:34.633Z,69.50
2018-02-16T00:24:02.062Z,69.70
2018-02-16T00:26:29.487Z,70.00
2018-02-16T00:28:56.915Z,70.20
2018-02-16T00:31:24.346Z,69.50
2018-02-16T00:33:51.782Z,69.60
2018-02-16T00:36:19.217Z,69.60
2018-02-16T00:38:46.646Z,69.50
2018-02-16T00:41:14.075Z,68.80
2018-02-16T00:43:41.516Z,68.00
2018-02-16T00:46:09.703Z,67.80
2018-02-16T00:48:37.143Z,67.70
2018-02-16T00:51:04.567Z,67.80
2018-02-16T00:53:32.004Z,67.80
2018-02-16T00:55:59.430Z,67.70
2018-02-16T00:58:27.871Z,67.90
2018-02-16T01:00:55.293Z,67.90
2018-02-16T01:03:22.823Z,67.70
2018-02-16T01:05:50.247Z,67.70
2018-02-16T01:08:17.730Z,67.50
2018-02-16T01:10:45.123Z,67.40
2018-02-16T01:13:12.556Z,68.00
2018-02-16T01:15:39.990Z,68.50
2018-02-16T01:18:07.424Z,68.00
2018-02-16T01:20:35.628Z,67.80
2018-02-16T01:23:03.065Z,67.70
2018-02-16T01:25:30.514Z,67.30
2018-02-16T01:27:57.951Z,67.60
2018-02-16T01:30:25.407Z,68.30
2018-02-16T01:32:52.832Z,68.50
2018-02-16T01:35:20.251Z,69.10
2018-02-16T01:37:48.455Z,72.40
2018-02-16T01:40:15.886Z,72.40
2018-02-16T01:42:43.323Z,73.40
2018-02-16T01:45:11.550Z,71.30
2018-02-16T01:47:38.991Z,71.30
2018-02-16T01:50:06.406Z,70.30
2018-02-16T01:52:33.863Z,72.20
2018-02-16T01:55:01.320Z,70.80
2018-02-16T01:57:28.745Z,70.40
2018-02-16T01:59:57.016Z,69.40
2018-02-16T02:02:24.450Z,67.80
2018-02-16T02:04:51.865Z,67.20
2018-02-16T02:07:20.067Z,67.30
2018-02-16T02:09:47.499Z,67.30
2018-02-16T02:12:14.944Z,67.40
2018-02-16T02:14:42.596Z,68.00
2018-02-16T02:17:09.996Z,68.30
2018-02-16T02:19:37.451Z,69.30
2018-02-16T02:22:04.871Z,69.30
2018-02-16T02:24:32.307Z,69.30
2018-02-16T02:26:59.720Z,68.30
2018-02-16T02:29:27.160Z,68.10
2018-02-16T02:31:54.587Z,68.60
2018-02-16T02:34:22.024Z,69.60
2018-02-16T02:36:49.460Z,67.40
2018-02-16T02:39:16.911Z,67.00
2018-02-16T02:41:44.336Z,67.80
2018-02-16T02:44:11.772Z,68.90
2018-02-16T02:46:39.985Z,69.80
2018-02-16T02:49:07.857Z,69.70
2018-02-16T02:51:35.283Z,69.80
2018-02-16T02:54:02.712Z,69.80
2018-02-16T02:56:30.139Z,70.50
2018-02-16T02:58:57.578Z,70.70
2018-02-16T03:01:25.006Z,71.40
2018-02-16T03:03:53.368Z,70.20
2018-02-16T03:06:20.811Z,70.20
2018-02-16T03:08:48.267Z,69.90
2018-02-16T03:11:15.711Z,70.30
2018-02-16T03:13:43.184Z,70.20
2018-02-16T03:16:10.615Z,70.30
2018-02-16T03:18:38.035Z,70.80
2018-02-16T03:21:05.472Z,71.10
2018-02-16T03:23:33.663Z,72.90
2018-02-16T03:26:01.100Z,72.90
2018-02-16T03:28:28.528Z,73.70
2018-02-16T03:30:55.957Z,75.20
2018-02-16T03:33:23.473Z,75.30
2018-02-16T03:35:50.892Z,73.80
2018-02-16T03:38:18.327Z,72.50
2018-02-16T03:40:45.759Z,71.70
2018-02-16T03:43:13.175Z,71.30
2018-02-16T03:45:41.362Z,71.30
2018-02-16T03:48:08.801Z,70.60
2018-02-16T03:50:36.227Z,71.50
2018-02-16T03:53:03.730Z,71.80
2018-02-16T03:55:31.173Z,70.80
2018-02-16T03:57:58.610Z,70.50
2018-02-16T04:00:26.033Z,70.00
2018-02-16T04:02:53.466Z,69.60
2018-02-16T04:05:20.896Z,69.20
2018-02-16T04:07:48.327Z,69.20
2018-02-16T04:10:15.752Z,70.30
2018-02-16T04:12:43.188Z,70.40
2018-02-16T04:15:10.622Z,70.40
2018-02-16T04:17:38.044Z,70.40
2018-02-16T04:20:05.480Z,70.70
2018-02-16T04:22:32.903Z,70.20
2018-02-16T04:25:00.339Z,69.00
2018-02-16T04:27:27.764Z,68.50
2018-02-16T04:29:55.204Z,68.00
2018-02-16T04:32:22.619Z,67.70
2018-02-16T04:34:50.829Z,67.30
2018-02-16T04:37:19.163Z,67.30
2018-02-16T04:39:46.599Z,67.20
2018-02-16T04:42:14.032Z,67.20
2018-02-16T04:44:41.483Z,67.50
2018-02-16T04:47:08.916Z,66.90
2018-02-16T04:49:36.348Z,66.70
2018-02-16T04:52:04.564Z,66.90
2018-02-16T04:54:31.992Z,66.70
2018-02-16T04:56:59.424Z,67.20
2018-02-16T04:59:26.848Z,67.40
2018-02-16T05:01:54.291Z,67.70
2018-02-16T05:04:21.717Z,67.20
2018-02-16T05:06:49.150Z,67.80
2018-02-16T05:09:17.383Z,68.20
2018-02-16T05:11:45.008Z,67.80
2018-02-16T05:14:12.514Z,67.60
2018-02-16T05:16:40.056Z,67.40
2018-02-16T05:19:07.483Z,68.90
2018-02-16T05:21:34.926Z,69.90
2018-02-16T05:24:02.355Z,69.80
2018-02-16T05:26:29.837Z,69.60
2018-02-16T05:28:57.336Z,69.80
2018-02-16T05:31:24.791Z,69.70
2018-02-16T05:33:52.248Z,69.90
2018-02-16T05:36:19.676Z,69.70
2018-02-16T05:38:48.107Z,70.60
2018-02-16T05:41:15.539Z,69.80
2018-02-16T05:43:42.968Z,70.70
2018-02-16T05:46:10.425Z,71.10
2018-02-16T05:48:37.869Z,71.10
2018-02-16T05:51:05.292Z,71.20
2018-02-16T05:53:32.727Z,70.60
2018-02-16T05:56:00.156Z,70.40
2018-02-16T05:58:27.617Z,71.60
2018-02-16T06:00:55.035Z,71.50
2018-02-16T06:03:23.259Z,72.20
2018-02-16T06:05:50.688Z,72.00
2018-02-16T06:08:18.122Z,70.90
2018-02-16T06:10:45.575Z,70.50
2018-02-16T06:13:13.011Z,70.20
2018-02-16T06:15:40.447Z,70.00
2018-02-16T06:18:08.004Z,69.70
2018-02-16T06:20:35.460Z,69.30
2018-02-16T06:23:03.096Z,67.80
2018-02-16T06:25:30.552Z,66.70
2018-02-16T06:27:58.000Z,66.00
2018-02-16T06:30:25.511Z,66.00
2018-02-16T06:32:53.091Z,66.30
2018-02-16T06:35:20.814Z,66.50
2018-02-16T06:37:48.243Z,66.60
2018-02-16T06:40:15.680Z,66.60
2018-02-16T06:42:43.172Z,66.80
2018-02-16T06:45:10.600Z,66.90
2018-02-16T06:47:38.132Z,67.00
2018-02-16T06:50:05.523Z,67.60
2018-02-16T06:52:32.952Z,67.60
2018-02-16T06:55:00.385Z,67.90
2018-02-16T06:57:27.817Z,67.80
2018-02-16T06:59:55.271Z,67.50
2018-02-16T07:02:22.819Z,67.80
2018-02-16T07:04:50.244Z,67.70
2018-02-16T07:07:17.744Z,67.40
2018-02-16T07:09:45.363Z,67.50
2018-02-16T07:12:12.835Z,66.50
2018-02-16T07:14:40.260Z,67.50
2018-02-16T07:17:08.484Z,68.00
2018-02-16T07:19:35.912Z,67.90
2018-02-16T07:22:03.343Z,67.10
2018-02-16T07:24:30.768Z,67.30
2018-02-16T07:26:58.280Z,67.20
2018-02-16T07:29:25.768Z,67.30
2018-02-16T07:31:53.222Z,67.60
2018-02-16T07:34:20.641Z,68.00
2018-02-16T07:36:48.124Z,68.10
2018-02-16T07:39:15.592Z,68.70
2018-02-16T07:41:43.048Z,68.50
2018-02-16T07:44:10.596Z,68.00
2018-02-16T07:46:38.167Z,67.30
2018-02-16T07:49:05.715Z,67.40
2018-02-16T07:51:33.140Z,68.30
2018-02-16T07:54:00.587Z,68.30
2018-02-16T07:56:28.080Z,68.30
2018-02-16T07:58:55.564Z,68.60
2018-02-16T08:01:22.971Z,67.60
2018-02-16T08:03:50.455Z,68.80
2018-02-16T08:06:18.082Z,69.60
2018-02-16T08:08:45.590Z,70.60
2018-02-16T08:11:13.048Z,71.50
2018-02-16T08:13:40.543Z,72.40
2018-02-16T08:16:08.031Z,73.40
2018-02-16T08:18:35.423Z,73.00
2018-02-16T08:21:02.864Z,71.80
2018-02-16T08:23:30.335Z,71.90
2018-02-16T08:25:57.768Z,71.00
2018-02-16T08:28:25.280Z,70.70
2018-02-16T08:30:52.711Z,70.50
2018-02-16T08:33:20.142Z,70.60
2018-02-16T08:35:47.607Z,72.20
2018-02-16T08:38:15.048Z,71.90
2018-02-16T08:40:42.552Z,71.80
2018-02-16T08:43:09.994Z,70.60
2018-02-16T08:45:37.528Z,73.00
2018-02-16T08:48:05.164Z,76.40
2018-02-16T08:50:32.751Z,76.80
2018-02-16T08:53:00.396Z,75.60
2018-02-16T08:55:27.963Z,76.30
2018-02-16T08:57:55.601Z,76.20
2018-02-16T09:00:23.188Z,76.40
2018-02-16T09:02:50.635Z,77.10
2018-02-16T09:05:18.088Z,77.20
2018-02-16T09:07:45.524Z,76.30
2018-02-16T09:10:12.963Z,76.40
2018-02-16T09:12:40.405Z,74.40
2018-02-16T09:15:07.835Z,73.30
2018-02-16T09:17:35.352Z,72.00
2018-02-16T09:20:02.783Z,70.60
2018-02-16T09:22:30.214Z,69.20
2018-02-16T09:24:57.739Z,69.20
2018-02-16T09:27:25.201Z,69.20
2018-02-16T09:29:52.650Z,68.90
2018-02-16T09:32:20.090Z,68.10
2018-02-16T09:34:47.563Z,67.40
2018-02-16T09:37:15.024Z,66.90
2018-02-16T09:39:46.144Z,67.10
2018-02-16T09:42:13.618Z,66.80
2018-02-16T09:44:41.047Z,65.90
2018-02-16T09:47:08.488Z,65.20
2018-02-16T09:49:35.916Z,65.50
2018-02-16T09:52:04.107Z,66.00
2018-02-16T09:54:31.576Z,66.60
2018-02-16T09:57:00.122Z,65.50
2018-02-16T09:59:27.619Z,62.80
2018-02-16T10:01:56.188Z,62.70
2018-02-16T10:04:24.391Z,61.00
2018-02-16T10:06:51.815Z,60.50
2018-02-16T10:09:19.320Z,59.70
2018-02-16T10:11:46.750Z,59.50
2018-02-16T10:14:14.171Z,56.30
2018-02-16T10:16:41.695Z,56.80
2018-02-16T10:19:09.146Z,78.10
2018-02-16T10:21:36.575Z,70.50
2018-02-16T10:24:03.999Z,58.00
2018-02-16T10:26:31.435Z,52.10
2018-02-16T10:28:58.979Z,51.80
2018-02-16T10:31:26.613Z,52.00
2018-02-16T10:33:54.195Z,50.10
2018-02-16T10:36:21.637Z,49.00
2018-02-16T10:38:49.123Z,53.20
2018-02-16T10:41:16.872Z,50.30
2018-02-16T10:43:44.498Z,64.60
2018-02-16T10:46:13.015Z,58.70
2018-02-16T10:48:40.475Z,51.20
2018-02-16T10:51:07.932Z,45.10
2018-02-16T10:53:35.363Z,45.40
2018-02-16T10:56:02.803Z,45.50
2018-02-16T10:58:30.294Z,44.00
2018-02-16T11:03:54.165Z,43.00
2018-02-16T11:06:27.317Z,38.00
2018-02-16T11:09:00.299Z,43.20
2018-02-16T11:11:27.856Z,40.10
2018-02-16T11:13:55.288Z,39.80
2018-02-16T11:16:22.733Z,42.60
2018-02-16T11:18:50.164Z,39.50
2018-02-16T11:21:17.599Z,42.60
2018-02-16T11:23:45.077Z,41.50
2018-02-16T11:26:12.480Z,41.50
2018-02-16T11:28:39.923Z,41.80
2018-02-16T11:31:07.369Z,41.10
2018-02-16T11:33:34.810Z,41.50
2018-02-16T11:36:02.236Z,41.70
2018-02-16T11:38:30.444Z,40.10
2018-02-16T11:40:57.872Z,40.10
2018-02-16T11:43:25.313Z,40.00
2018-02-16T11:45:52.756Z,38.20
2018-02-16T11:48:20.200Z,38.00
2018-02-16T11:50:47.638Z,37.50
2018-02-16T11:53:15.084Z,37.60
2018-02-16T11:55:42.524Z,37.60
2018-02-16T11:58:09.959Z,35.10
2018-02-16T12:00:38.155Z,36.10
2018-02-16T12:03:05.594Z,36.20
2018-02-16T12:05:33.019Z,35.30
2018-02-16T12:08:00.452Z,34.50
2018-02-16T12:10:27.898Z,35.50
2018-02-16T12:12:55.343Z,36.70
2018-02-16T12:15:22.866Z,35.10
2018-02-16T12:17:51.065Z,35.90
2018-02-16T12:20:18.526Z,35.90
2018-02-16T12:22:46.048Z,36.20
2018-02-16T12:25:14.245Z,36.20
2018-02-16T12:27:41.680Z,36.20
2018-02-16T12:30:09.187Z,36.10
2018-02-16T12:32:36.619Z,36.00
2018-02-16T12:35:04.072Z,35.90
2018-02-16T12:37:31.495Z,36.00
2018-02-16T12:39:58.927Z,36.00
2018-02-16T12:42:26.379Z,33.40
2018-02-16T12:44:53.943Z,31.30
2018-02-16T12:47:21.691Z,31.30
2018-02-16T12:49:49.141Z,31.50
2018-02-16T12:52:16.606Z,28.30
2018-02-16T12:54:44.055Z,30.50
2018-02-16T12:57:11.483Z,29.70
2018-02-16T12:59:38.912Z,28.70
2018-02-16T13:02:06.440Z,26.70
2018-02-16T13:04:34.064Z,26.80
2018-02-16T13:07:01.601Z,25.40
2018-02-16T13:09:29.059Z,24.10
2018-02-16T13:11:56.568Z,23.70
2018-02-16T13:14:24.093Z,24.10
2018-02-16T13:16:51.549Z,22.90
2018-02-16T13:19:18.953Z,23.20
2018-02-16T13:21:46.382Z,18.80
2018-02-16T13:24:13.816Z,19.30
2018-02-16T13:26:41.242Z,17.60
2018-02-16T13:29:08.677Z,16.70
2018-02-16T13:31:36.096Z,13.60
2018-02-16T13:34:03.537Z,11.60
2018-02-16T13:36:30.972Z,11.10
2018-02-16T13:38:59.179Z,9.20
2018-02-16T13:41:26.600Z,9.20
2018-02-16T13:43:54.060Z,8.90
2018-02-16T13:46:21.431Z,7.20
2018-02-16T13:48:48.859Z,8.00
2018-02-16T13:51:17.048Z,6.10
2018-02-16T13:53:45.235Z,7.10
2018-02-16T13:56:12.654Z,6.90
2018-02-16T13:58:40.079Z,5.10
2018-02-16T14:01:08.317Z,4.60
2018-02-16T14:03:36.537Z,4.60
2018-02-16T14:06:04.045Z,4.50
2018-02-16T14:08:32.458Z,4.30
2018-02-16T14:11:00.118Z,4.40
2018-02-16T14:13:27.519Z,4.20
2018-02-16T14:15:55.778Z,3.30
2018-02-16T14:18:23.188Z,3.30
2018-02-16T14:20:50.624Z,3.50
2018-02-16T14:23:18.108Z,2.20
2018-02-16T14:25:45.566Z,3.50
2018-02-16T14:28:13.067Z,4.30
2018-02-16T14:30:40.607Z,5.40
2018-02-16T14:33:08.121Z,5.50
2018-02-16T14:35:35.586Z,6.00
2018-02-16T14:38:03.098Z,8.40
2018-02-16T14:40:30.659Z,9.70
2018-02-16T14:42:58.129Z,10.00
2018-02-16T14:45:25.584Z,11.00
2018-02-16T14:47:53.087Z,12.00
2018-02-16T14:50:20.684Z,10.60
2018-02-16T14:52:48.244Z,10.80
2018-02-16T14:55:15.888Z,12.00
2018-02-16T14:57:43.366Z,12.00
2018-02-16T15:00:10.808Z,11.30
2018-02-16T15:02:38.265Z,9.70
2018-02-16T15:05:05.721Z,8.90
2018-02-16T15:07:33.157Z,8.30
2018-02-16T15:10:01.423Z,8.10
2018-02-16T15:12:28.886Z,8.50
2018-02-16T15:14:56.306Z,7.30
2018-02-16T15:17:23.729Z,7.50
2018-02-16T15:19:51.272Z,8.40
2018-02-16T15:22:18.700Z,7.70
2018-02-16T15:24:46.131Z,7.60
2018-02-16T15:27:13.552Z,6.90
2018-02-16T15:29:40.987Z,5.80
2018-02-16T15:32:08.458Z,5.20
2018-02-16T15:34:35.922Z,5.60
2018-02-16T15:37:03.392Z,5.80
2018-02-16T15:39:31.610Z,7.70
2018-02-16T15:41:59.116Z,7.60
2018-02-16T15:44:26.511Z,8.20
2018-02-16T15:46:53.938Z,8.90
2018-02-16T15:49:22.159Z,9.70
2018-02-16T15:51:49.587Z,9.70
2018-02-16T15:54:17.002Z,9.90
2018-02-16T15:56:44.428Z,9.70
2018-02-16T15:59:11.847Z,9.80
2018-02-16T16:01:39.272Z,11.00
2018-02-16T16:04:06.703Z,10.90
2018-02-16T16:06:34.136Z,11.70
2018-02-16T16:09:01.563Z,12.30
2018-02-16T16:11:28.999Z,13.30
2018-02-16T16:13:56.426Z,14.00
2018-02-16T16:16:23.838Z,14.60
2018-02-16T16:18:51.276Z,15.10
2018-02-16T16:21:18.791Z,15.40
2018-02-16T16:23:48.487Z,15.80
2018-02-16T16:26:16.015Z,16.60
2018-02-16T16:28:43.450Z,17.10
2018-02-16T16:31:10.877Z,17.70
2018-02-16T16:33:38.492Z,18.70
2018-02-16T16:36:06.051Z,19.40
2018-02-16T16:38:33.531Z,20.30
2018-02-16T16:41:00.968Z,22.40
2018-02-16T16:43:28.407Z,23.10
2018-02-16T16:45:55.916Z,22.90
2018-02-16T16:48:23.364Z,23.50
2018-02-16T16:50:50.820Z,23.30
2018-02-16T16:53:18.398Z,22.80
2018-02-16T16:55:46.039Z,23.10
2018-02-16T16:58:13.451Z,23.30
2018-02-16T17:00:40.883Z,23.60
2018-02-16T17:03:08.311Z,23.30
2018-02-16T17:05:35.731Z,23.30
2018-02-16T17:08:03.174Z,24.00
2018-02-16T17:10:30.597Z,24.20
2018-02-16T17:12:58.026Z,24.60
2018-02-16T17:15:25.447Z,24.80
2018-02-16T17:17:52.936Z,25.20
2018-02-16T17:20:20.367Z,25.60
2018-02-16T17:22:47.852Z,25.80
2018-02-16T17:25:15.271Z,26.10
2018-02-16T17:27:42.762Z,26.30
2018-02-16T17:30:10.191Z,26.60
2018-02-16T17:32:37.675Z,26.80
2018-02-16T17:35:05.109Z,26.90
2018-02-16T17:37:32.533Z,27.00
2018-02-16T17:39:59.959Z,27.10
2018-02-16T17:42:28.263Z,27.20
2018-02-16T17:44:56.482Z,27.50
2018-02-16T17:47:23.924Z,27.50
2018-02-16T17:49:51.420Z,28.30
2018-02-16T17:52:18.827Z,28.80
2018-02-16T17:54:46.315Z,28.90
2018-02-16T17:57:13.736Z,29.00
2018-02-16T17:59:41.178Z,28.90
2018-02-16T18:02:09.524Z,29.40
2018-02-16T18:04:36.944Z,29.40
2018-02-16T18:07:04.397Z,29.70
2018-02-16T18:09:31.820Z,30.00
2018-02-16T18:12:00.022Z,30.50
2018-02-16T18:14:27.451Z,30.50
2018-02-16T18:16:54.877Z,31.00
2018-02-16T18:19:22.308Z,31.90
2018-02-16T18:21:49.743Z,32.20
2018-02-16T18:24:17.315Z,32.30
2018-02-16T18:26:45.080Z,32.20
2018-02-16T18:29:12.508Z,32.00
2018-02-16T18:31:39.943Z,32.60
2018-02-16T18:34:07.387Z,34.10
2018-02-16T18:36:34.864Z,37.20
2018-02-16T18:39:02.309Z,37.60
2018-02-16T18:41:29.744Z,38.20
2018-02-16T18:43:57.187Z,38.70
2018-02-16T18:46:25.394Z,38.80
2018-02-16T18:48:52.846Z,38.80
2018-02-16T18:51:20.294Z,38.20
2018-02-16T18:53:47.783Z,38.10
2018-02-16T18:56:15.215Z,37.20
2018-02-16T18:58:42.705Z,36.40
2018-02-16T19:01:10.091Z,37.40
2018-02-16T19:03:37.524Z,37.50
2018-02-16T19:06:04.968Z,39.70
2018-02-16T19:08:32.399Z,38.40
2018-02-16T19:10:59.989Z,37.80
2018-02-16T19:13:27.460Z,36.80
2018-02-16T19:15:54.904Z,37.00
2018-02-16T19:18:22.345Z,37.40
2018-02-16T19:20:49.779Z,37.20
2018-02-16T19:23:17.299Z,37.70
2018-02-16T19:25:44.826Z,38.70
2018-02-16T19:28:12.256Z,39.50
2018-02-16T19:30:40.581Z,38.70
2018-02-16T19:33:08.008Z,38.60
2018-02-16T19:35:35.457Z,38.70
2018-02-16T19:38:03.159Z,38.50
2018-02-16T19:40:30.592Z,38.60
2018-02-16T19:42:58.064Z,38.40
2018-02-16T19:45:25.771Z,38.30
2018-02-16T19:47:55.030Z,38.30
2018-02-16T19:50:22.523Z,39.60
2018-02-16T19:52:50.554Z,39.00
2018-02-16T19:55:18.956Z,38.90
2018-02-16T19:57:46.492Z,40.10
2018-02-16T20:00:13.928Z,39.70
2018-02-16T20:02:41.973Z,40.60
2018-02-16T20:05:09.660Z,42.10
2018-02-16T20:07:37.087Z,43.10
2018-02-16T20:10:05.320Z,41.70
2018-02-16T20:12:32.949Z,41.60
2018-02-16T20:15:00.917Z,40.80
2018-02-16T20:17:28.749Z,40.40
2018-02-16T20:19:56.254Z,41.00
2018-02-16T20:22:23.692Z,41.00
2018-02-16T20:24:51.592Z,41.40
2018-02-16T20:27:20.501Z,40.50
2018-02-16T20:29:47.990Z,40.40
2018-02-16T20:32:15.494Z,41.30
2018-02-16T20:34:43.400Z,40.90
2018-02-16T20:37:11.012Z,39.80
2018-02-16T20:39:39.289Z,39.80
2018-02-16T20:42:06.860Z,39.90
2018-02-16T20:44:34.637Z,40.00
2018-02-16T20:47:02.276Z,40.00
2018-02-16T20:49:29.895Z,40.00
2018-02-16T20:51:57.349Z,40.30
2018-02-16T20:54:24.815Z,40.20
2018-02-16T20:56:52.238Z,40.50
2018-02-16T20:59:19.865Z,40.60
2018-02-16T21:01:47.445Z,40.60
2018-02-16T21:04:14.887Z,40.60
2018-02-16T21:06:42.312Z,40.30
2018-02-16T21:09:09.743Z,40.10
2018-02-16T21:11:37.170Z,40.30
2018-02-16T21:14:04.614Z,40.60
2018-02-16T21:16:32.032Z,40.30
2018-02-16T21:18:59.451Z,40.60
2018-02-16T21:21:26.889Z,40.90
2018-02-16T21:23:54.308Z,40.90
2018-02-16T21:26:21.747Z,40.30
2018-02-16T21:28:49.163Z,40.90
2018-02-16T21:31:16.615Z,40.90
2018-02-16T21:33:44.058Z,40.50
2018-02-16T21:36:11.496Z,40.30
2018-02-16T21:38:38.919Z,40.80
2018-02-16T21:41:06.352Z,40.80
2018-02-16T21:43:33.781Z,40.70
2018-02-16T21:46:01.216Z,40.70
2018-02-16T21:48:28.634Z,40.60
2018-02-16T21:50:56.846Z,40.60
2018-02-16T21:53:24.265Z,40.60
2018-02-16T21:55:52.470Z,40.60
2018-02-16T21:58:19.906Z,40.60
2018-02-16T22:00:48.099Z,40.70
2018-02-16T22:03:15.532Z,40.60
2018-02-16T22:05:43.935Z,40.60
2018-02-16T22:08:11.382Z,40.50
2018-02-16T22:10:38.955Z,40.50
2018-02-16T22:13:06.387Z,40.50
2018-02-16T22:15:33.811Z,40.80
2018-02-16T22:18:01.256Z,41.20
2018-02-16T22:20:28.701Z,41.30
2018-02-16T22:22:56.120Z,41.20
2018-02-16T22:25:23.534Z,41.60
2018-02-16T22:27:50.986Z,42.00
2018-02-16T22:30:18.572Z,42.00
2018-02-16T22:32:46.002Z,41.80
2018-02-16T22:35:13.490Z,42.00
2018-02-16T22:37:40.900Z,41.80
2018-02-16T22:40:08.331Z,41.70
2018-02-16T22:42:35.770Z,42.40
2018-02-16T22:45:03.200Z,42.60
2018-02-16T22:47:31.400Z,42.80
2018-02-16T22:49:58.836Z,42.70
2018-02-16T22:52:26.251Z,43.30
2018-02-16T22:54:53.683Z,43.10
2018-02-16T22:57:21.106Z,43.00
2018-02-16T22:59:48.540Z,44.60
2018-02-16T23:02:15.967Z,43.10
2018-02-16T23:04:43.405Z,43.30
2018-02-16T23:07:10.823Z,42.80
2018-02-16T23:09:38.243Z,42.50
2018-02-16T23:12:05.675Z,42.70
2018-02-16T23:14:33.091Z,42.50
2018-02-16T23:17:00.528Z,42.50
2018-02-16T23:19:28.015Z,42.50
2018-02-16T23:21:55.451Z,42.60
2018-02-16T23:24:22.875Z,42.60
2018-02-16T23:26:50.379Z,42.30
2018-02-16T23:29:18.551Z,42.70
2018-02-16T23:31:45.992Z,42.60
2018-02-16T23:34:13.407Z,42.50
2018-02-16T23:36:40.842Z,42.50
2018-02-16T23:39:08.264Z,42.60
2018-02-16T23:41:35.691Z,42.70
2018-02-16T23:44:03.068Z,42.90
2018-02-16T23:46:30.495Z,42.70
2018-02-16T23:48:57.929Z,43.60
2018-02-16T23:51:26.116Z,42.90
2018-02-16T23:53:53.539Z,42.80
2018-02-16T23:56:20.967Z,43.10
2018-02-16T23:58:48.387Z,43.20
